Time;durP1;ratioP1;P1;durP2;ratioP2;P2;SDS_P1;SDS_P2;PMS_P1;PMS_P2;Temp;Humidity;BMP_temperature;BMP_pressure;BME280_temperature;BME280_humidity;BME280_pressure;Samples;Min_cycle;Max_cycle;Signal;HPM_P1;HPM_P2
2024/01/08 00:00:10;;;;;;;4.30;3.40;;;1.00;29.60;;;;;;5097339;28;20469;-76
2024/01/08 00:02:36;;;;;;;5.40;4.55;;;0.90;28.90;;;;;;5097934;28;20386;-78
2024/01/08 00:05:01;;;;;;;6.03;4.00;;;0.90;29.60;;;;;;5100661;28;20412;-76
2024/01/08 00:07:27;;;;;;;7.13;4.70;;;0.90;29.60;;;;;;5097925;28;20386;-78
2024/01/08 00:09:52;;;;;;;5.20;4.67;;;0.90;29.90;;;;;;5097669;28;20761;-76
2024/01/08 00:12:18;;;;;;;3.58;3.13;;;0.90;29.90;;;;;;5096192;28;20382;-78
2024/01/08 00:14:43;;;;;;;8.30;5.95;;;0.90;28.40;;;;;;5098510;28;20817;-75
2024/01/08 00:17:09;;;;;;;6.07;3.75;;;0.80;29.60;;;;;;5097905;28;20386;-76
2024/01/08 00:19:34;;;;;;;6.27;4.10;;;0.80;28.30;;;;;;5097511;28;20378;-76
2024/01/08 00:22:00;;;;;;;4.50;3.30;;;0.80;28.90;;;;;;5097165;28;20393;-77
2024/01/08 00:24:25;;;;;;;5.80;4.80;;;0.80;28.10;;;;;;5095586;28;20397;-76
2024/01/08 00:26:51;;;;;;;11.05;7.70;;;0.80;28.90;;;;;;5094369;28;20378;-75
2024/01/08 00:29:16;;;;;;;3.47;3.15;;;0.80;32.20;;;;;;5096710;28;20718;-78
2024/01/08 00:31:42;;;;;;;4.63;4.13;;;0.90;28.70;;;;;;5098863;28;20722;-77
2024/01/08 00:34:08;;;;;;;5.60;3.90;;;0.90;28.90;;;;;;5098193;28;20566;-76
2024/01/08 00:36:36;;;;;;;4.77;4.27;;;0.90;29.10;;;;;;5096850;28;20412;-77
2024/01/08 00:39:02;;;;;;;7.30;5.60;;;0.90;28.80;;;;;;5097728;28;20394;-76
2024/01/08 00:41:28;;;;;;;6.28;4.38;;;0.90;30.60;;;;;;5096729;28;20393;-76
2024/01/08 00:43:53;;;;;;;4.80;3.80;;;0.90;29.10;;;;;;5093762;28;20538;-75
2024/01/08 00:46:19;;;;;;;5.73;4.50;;;0.90;29.00;;;;;;5094568;28;20388;-76
2024/01/08 00:48:44;;;;;;;6.73;4.90;;;0.90;29.50;;;;;;5093904;28;20378;-77
2024/01/08 00:51:10;;;;;;;5.95;4.80;;;0.90;30.20;;;;;;5094741;28;20381;-77
2024/01/08 00:53:35;;;;;;;6.53;5.22;;;0.80;30.60;;;;;;5092854;28;20385;-76
2024/01/08 00:56:01;;;;;;;13.07;9.47;;;0.70;31.60;;;;;;5093966;28;20868;-77
2024/01/08 00:58:27;;;;;;;12.33;8.70;;;0.70;33.50;;;;;;5091885;28;20400;-77
2024/01/08 01:00:53;;;;;;;8.32;5.47;;;0.70;34.10;;;;;;5094718;28;20868;-76
2024/01/08 01:03:19;;;;;;;8.20;6.10;;;0.80;32.60;;;;;;5094621;28;20462;-76
2024/01/08 01:05:45;;;;;;;10.88;6.50;;;0.80;32.60;;;;;;5102504;28;20382;-77
2024/01/08 01:08:10;;;;;;;7.20;6.20;;;0.80;33.00;;;;;;5095498;28;20744;-75
2024/01/08 01:10:36;;;;;;;9.67;7.00;;;0.70;33.00;;;;;;5094284;28;20389;-75
2024/01/08 01:13:01;;;;;;;9.23;6.90;;;0.70;33.80;;;;;;5095360;28;20659;-76
2024/01/08 01:15:27;;;;;;;8.13;6.88;;;0.70;33.60;;;;;;5095500;28;20477;-77
2024/01/08 01:17:52;;;;;;;10.52;7.68;;;0.70;33.80;;;;;;5095967;28;20459;-75
2024/01/08 01:20:18;;;;;;;12.43;8.70;;;0.60;34.40;;;;;;5095027;28;20505;-75
2024/01/08 01:22:43;;;;;;;14.80;10.30;;;0.60;35.40;;;;;;5094714;28;20388;-77
2024/01/08 01:25:09;;;;;;;9.30;7.60;;;0.70;36.10;;;;;;5093627;28;20406;-77
2024/01/08 01:27:35;;;;;;;10.88;8.23;;;0.70;34.60;;;;;;5093593;28;20794;-75
2024/01/08 01:30:00;;;;;;;9.65;7.90;;;0.70;34.30;;;;;;5093433;28;20382;-76
2024/01/08 01:32:26;;;;;;;12.57;9.83;;;0.60;35.20;;;;;;5095257;28;20370;-76
2024/01/08 01:34:51;;;;;;;8.60;7.10;;;0.70;36.00;;;;;;5093716;28;20389;-77
2024/01/08 01:37:17;;;;;;;8.70;7.33;;;0.70;34.30;;;;;;5104369;28;20424;-76
2024/01/08 01:39:42;;;;;;;12.45;9.57;;;0.70;34.10;;;;;;5099010;28;20405;-76
2024/01/08 01:42:08;;;;;;;11.27;7.38;;;0.70;35.90;;;;;;5093333;28;20547;-76
2024/01/08 01:44:33;;;;;;;10.93;8.30;;;0.70;34.50;;;;;;5094906;28;20455;-78
2024/01/08 01:46:59;;;;;;;9.53;7.60;;;0.60;35.20;;;;;;5096059;28;20393;-77
2024/01/08 01:49:25;;;;;;;10.05;8.20;;;0.60;34.70;;;;;;5093895;28;20405;-77
2024/01/08 01:51:50;;;;;;;8.82;7.40;;;0.60;34.90;;;;;;5092264;28;20374;-75
2024/01/08 01:54:20;;;;;;;12.63;8.83;;;0.50;34.60;;;;;;5091211;28;20541;-75
2024/01/08 01:56:55;;;;;;;9.20;7.90;;;0.40;35.40;;;;;;5095524;28;20443;-75
2024/01/08 01:59:22;;;;;;;9.93;7.60;;;0.40;35.50;;;;;;5095004;28;20455;-77
2024/01/08 02:01:48;;;;;;;11.40;8.10;;;0.40;34.90;;;;;;5094826;28;20868;-77
2024/01/08 02:04:15;;;;;;;11.60;8.45;;;0.30;35.70;;;;;;5095329;28;20479;-75
2024/01/08 02:06:43;;;;;;;13.55;8.70;;;0.30;36.30;;;;;;5093434;28;20887;-76
2024/01/08 02:09:09;;;;;;;12.43;9.05;;;0.40;36.10;;;;;;5093890;28;20591;-76
2024/01/08 02:11:35;;;;;;;10.20;8.05;;;0.40;37.20;;;;;;5093085;28;20404;-75
2024/01/08 02:14:00;;;;;;;11.50;8.00;;;0.40;36.40;;;;;;5095398;28;20386;-78
2024/01/08 02:16:26;;;;;;;13.30;8.60;;;0.40;36.00;;;;;;5096590;28;20389;-76
2024/01/08 02:18:51;;;;;;;10.80;8.20;;;0.40;36.50;;;;;;5092425;22;20419;-73
2024/01/08 02:21:17;;;;;;;10.48;8.02;;;0.40;36.30;;;;;;5072531;28;20392;-72
2024/01/08 02:23:43;;;;;;;10.43;8.80;;;0.30;36.00;;;;;;5073636;28;20403;-72
2024/01/08 02:26:11;;;;;;;11.18;9.05;;;0.20;36.60;;;;;;5074242;28;20379;-72
2024/01/08 02:28:36;;;;;;;12.80;9.05;;;0.10;36.70;;;;;;5088276;28;20378;-72
2024/01/08 02:31:02;;;;;;;11.97;9.40;;;0.00;37.00;;;;;;5075685;28;20479;-72
2024/01/08 02:33:27;;;;;;;12.23;9.47;;;0.00;37.30;;;;;;5094042;28;20374;-72
2024/01/08 02:35:54;;;;;;;10.35;8.80;;;-0.10;37.60;;;;;;5093541;28;20382;-72
2024/01/08 02:38:19;;;;;;;14.00;9.63;;;0.00;37.40;;;;;;5093626;28;20393;-71
2024/01/08 02:40:45;;;;;;;14.07;10.02;;;0.00;37.60;;;;;;5093567;28;20378;-72
2024/01/08 02:43:10;;;;;;;11.53;9.30;;;0.00;38.40;;;;;;5094398;28;20393;-70
2024/01/08 02:45:36;;;;;;;16.40;10.60;;;0.10;37.60;;;;;;5094629;28;20386;-70
2024/01/08 02:48:01;;;;;;;11.95;9.38;;;0.20;37.80;;;;;;5093911;28;20425;-71
2024/01/08 02:50:27;;;;;;;11.70;9.38;;;0.20;37.70;;;;;;5093606;28;20382;-72
2024/01/08 02:52:52;;;;;;;10.90;8.60;;;0.20;37.00;;;;;;5094585;28;20380;-73
2024/01/08 02:55:18;;;;;;;11.83;9.40;;;0.30;36.90;;;;;;5102475;28;20404;-71
2024/01/08 02:57:44;;;;;;;12.50;9.50;;;0.30;37.40;;;;;;5087847;28;20412;-72
2024/01/08 03:00:10;;;;;;;11.55;9.00;;;0.20;37.30;;;;;;5106423;28;20436;-71
2024/01/08 03:02:36;;;;;;;13.93;10.00;;;0.10;37.60;;;;;;5106446;28;20690;-71
2024/01/08 03:05:02;;;;;;;14.47;10.60;;;0.00;37.90;;;;;;5107466;28;20400;-72
2024/01/08 03:07:27;;;;;;;12.20;9.70;;;0.10;38.70;;;;;;5108562;28;20382;-71
2024/01/08 03:09:59;;;;;;;10.20;8.70;;;0.10;38.50;;;;;;5109597;28;20443;-70
2024/01/08 03:12:25;;;;;;;11.45;8.70;;;0.20;37.90;;;;;;5106811;28;20378;-71
2024/01/08 03:14:52;;;;;;;11.85;9.20;;;0.20;38.30;;;;;;5106543;28;20386;-70
2024/01/08 03:17:17;;;;;;;12.05;9.05;;;0.10;38.20;;;;;;5108830;28;20402;-71
2024/01/08 03:19:43;;;;;;;11.00;9.00;;;0.10;38.50;;;;;;5090292;28;20466;-71
2024/01/08 03:22:09;;;;;;;10.90;8.77;;;0.10;38.40;;;;;;5073663;28;20381;-71
2024/01/08 03:24:35;;;;;;;12.07;9.20;;;0.10;38.60;;;;;;5107399;28;20458;-72
2024/01/08 03:27:01;;;;;;;10.98;8.80;;;0.20;38.60;;;;;;5109493;28;20378;-71
2024/01/08 03:29:27;;;;;;;11.90;8.73;;;0.20;38.40;;;;;;5108455;28;20381;-72
2024/01/08 03:31:52;;;;;;;10.48;8.82;;;0.20;38.80;;;;;;5107045;28;20381;-71
2024/01/08 03:34:18;;;;;;;11.27;9.05;;;0.20;38.80;;;;;;5107197;28;20396;-72
2024/01/08 03:36:46;;;;;;;12.10;9.20;;;0.20;38.80;;;;;;5108379;28;20409;-71
2024/01/08 03:39:13;;;;;;;13.38;9.30;;;0.20;39.40;;;;;;5105988;28;20755;-72
2024/01/08 03:41:42;;;;;;;11.57;9.07;;;0.30;39.30;;;;;;5094068;28;20752;-72
2024/01/08 03:44:09;;;;;;;10.93;9.13;;;0.30;38.90;;;;;;5093117;28;20410;-72
2024/01/08 03:46:38;;;;;;;13.35;10.00;;;0.20;39.10;;;;;;5092385;28;20904;-72
2024/01/08 03:49:04;;;;;;;12.30;9.30;;;0.10;39.30;;;;;;5092535;28;20388;-73
2024/01/08 03:51:33;;;;;;;12.38;9.80;;;0.10;39.40;;;;;;5092396;28;20375;-73
2024/01/08 03:53:59;;;;;;;11.23;9.10;;;0.10;39.30;;;;;;5074402;28;20393;-71
2024/01/08 03:56:24;;;;;;;12.68;9.90;;;0.10;39.80;;;;;;5073954;28;20390;-73
2024/01/08 03:58:50;;;;;;;13.13;10.40;;;0.10;40.40;;;;;;5074127;28;20397;-72
2024/01/08 04:01:16;;;;;;;12.27;9.57;;;0.10;40.10;;;;;;5091971;28;20463;-72
2024/01/08 04:03:42;;;;;;;13.00;9.30;;;0.10;40.10;;;;;;5091784;28;20402;-73
2024/01/08 04:06:07;;;;;;;12.10;9.48;;;0.10;39.70;;;;;;5091729;28;20381;-72
2024/01/08 04:08:33;;;;;;;13.00;10.00;;;0.10;40.00;;;;;;5091869;28;20431;-72
2024/01/08 04:10:59;;;;;;;14.13;10.07;;;0.10;40.00;;;;;;5092273;28;20374;-72
2024/01/08 04:13:24;;;;;;;11.70;9.80;;;0.10;40.20;;;;;;5090928;28;20481;-72
2024/01/08 04:15:50;;;;;;;12.40;10.33;;;0.10;39.90;;;;;;5092327;28;20381;-72
2024/01/08 04:18:16;;;;;;;14.90;9.80;;;0.00;40.20;;;;;;5091819;28;20401;-72
2024/01/08 04:20:41;;;;;;;12.57;9.80;;;0.00;41.10;;;;;;5091961;28;20386;-72
2024/01/08 04:23:07;;;;;;;11.17;9.00;;;0.10;40.80;;;;;;5091696;28;20821;-73
2024/01/08 04:25:33;;;;;;;14.88;10.90;;;0.10;41.10;;;;;;5091989;28;20389;-71
2024/01/08 04:27:58;;;;;;;13.73;11.10;;;0.10;40.90;;;;;;5097947;28;20643;-73
2024/01/08 04:30:24;;;;;;;13.53;10.53;;;0.10;41.20;;;;;;5098776;28;20440;-73
2024/01/08 04:32:50;;;;;;;15.07;10.70;;;0.00;41.60;;;;;;5093293;28;20385;-73
2024/01/08 04:35:16;;;;;;;13.63;10.43;;;0.00;41.50;;;;;;5073138;28;20398;-72
2024/01/08 04:37:41;;;;;;;13.27;10.13;;;0.10;42.20;;;;;;5090767;28;20469;-71
2024/01/08 04:40:07;;;;;;;13.80;10.50;;;0.20;41.90;;;;;;5091363;28;20827;-72
2024/01/08 04:42:39;;;;;;;13.23;10.50;;;0.30;41.80;;;;;;5091261;28;20389;-75
2024/01/08 04:45:05;;;;;;;13.77;10.18;;;0.30;41.50;;;;;;5091135;28;20411;-73
2024/01/08 04:47:30;;;;;;;13.18;10.50;;;0.30;41.90;;;;;;5091300;28;20470;-73
2024/01/08 04:49:56;;;;;;;13.47;11.07;;;0.30;41.40;;;;;;5090674;28;20418;-72
2024/01/08 04:52:21;;;;;;;12.73;10.33;;;0.30;41.30;;;;;;5072401;28;20390;-72
2024/01/08 04:54:49;;;;;;;14.97;11.20;;;0.20;41.80;;;;;;5086995;28;20392;-73
2024/01/08 04:57:14;;;;;;;14.05;11.05;;;0.10;41.30;;;;;;5072177;28;20531;-72
2024/01/08 04:59:40;;;;;;;14.63;11.43;;;0.00;41.90;;;;;;5090956;28;20472;-75
2024/01/08 05:02:06;;;;;;;15.38;10.75;;;0.00;42.40;;;;;;5090831;28;20381;-70
2024/01/08 05:04:32;;;;;;;14.88;11.45;;;0.00;42.40;;;;;;5090857;28;20464;-71
2024/01/08 05:06:57;;;;;;;14.60;11.13;;;0.00;43.00;;;;;;5091342;28;20511;-71
2024/01/08 05:09:23;;;;;;;15.87;11.13;;;0.10;43.30;;;;;;5091361;28;20386;-72
2024/01/08 05:11:48;;;;;;;14.17;11.10;;;0.30;42.80;;;;;;5090958;28;20382;-71
2024/01/08 05:14:14;;;;;;;14.70;11.13;;;0.30;42.20;;;;;;5090972;28;20374;-71
2024/01/08 05:16:39;;;;;;;13.98;10.85;;;0.30;42.70;;;;;;5090709;28;20474;-71
2024/01/08 05:19:05;;;;;;;16.27;12.10;;;0.40;41.50;;;;;;5090732;28;20393;-70
2024/01/08 05:21:31;;;;;;;14.60;11.37;;;0.30;42.20;;;;;;5091115;28;20386;-71
2024/01/08 05:23:56;;;;;;;14.13;10.57;;;0.30;42.70;;;;;;5090957;28;20409;-71
2024/01/08 05:26:22;;;;;;;15.32;11.20;;;0.20;41.80;;;;;;5090548;28;20385;-71
2024/01/08 05:28:48;;;;;;;17.30;11.47;;;0.20;42.00;;;;;;5090344;28;20728;-70
2024/01/08 05:31:13;;;;;;;14.17;10.67;;;0.10;42.20;;;;;;5090405;28;20405;-70
2024/01/08 05:33:39;;;;;;;14.32;10.88;;;0.10;42.40;;;;;;5072143;28;20398;-71
2024/01/08 05:36:05;;;;;;;15.17;11.30;;;0.10;42.40;;;;;;5091047;28;20393;-71
2024/01/08 05:38:30;;;;;;;11.68;9.73;;;0.10;43.10;;;;;;5090839;28;20385;-71
2024/01/08 05:40:56;;;;;;;15.07;10.70;;;0.20;42.40;;;;;;5090666;28;20450;-70
2024/01/08 05:43:22;;;;;;;13.33;11.23;;;0.30;42.00;;;;;;5090844;28;20404;-71
2024/01/08 05:45:48;;;;;;;15.23;11.13;;;0.30;42.90;;;;;;5090703;28;20378;-70
2024/01/08 05:48:14;;;;;;;15.25;11.60;;;0.40;41.60;;;;;;5091245;28;20470;-69
2024/01/08 05:50:40;;;;;;;15.20;10.40;;;0.30;41.10;;;;;;5094188;28;20413;-69
2024/01/08 05:53:05;;;;;;;14.70;10.60;;;0.20;40.90;;;;;;5094305;28;20393;-70
2024/01/08 05:55:31;;;;;;;15.47;11.47;;;0.20;41.50;;;;;;5075883;28;20378;-70
2024/01/08 05:57:56;;;;;;;14.33;11.60;;;0.30;42.40;;;;;;5093813;28;20452;-69
2024/01/08 06:00:22;;;;;;;16.53;11.67;;;0.30;41.60;;;;;;5094340;28;20393;-69
2024/01/08 06:02:47;;;;;;;13.30;11.10;;;0.30;42.70;;;;;;5093935;28;20393;-72
2024/01/08 06:05:13;;;;;;;18.30;11.40;;;0.40;41.60;;;;;;5093713;28;20402;-71
2024/01/08 06:07:39;;;;;;;17.27;12.37;;;0.40;40.50;;;;;;5093653;28;20739;-71
2024/01/08 06:10:05;;;;;;;13.97;10.33;;;0.40;41.40;;;;;;5094021;28;20381;-70
2024/01/08 06:12:30;;;;;;;14.65;11.35;;;0.40;41.30;;;;;;5093600;28;20431;-70
2024/01/08 06:14:57;;;;;;;16.50;12.73;;;0.40;41.20;;;;;;5096557;28;20398;-70
2024/01/08 06:17:22;;;;;;;17.37;12.20;;;0.50;43.10;;;;;;5075090;28;20443;-70
2024/01/08 06:19:48;;;;;;;15.40;11.10;;;0.60;42.10;;;;;;5093519;28;20465;-70
2024/01/08 06:22:14;;;;;;;13.43;10.77;;;0.50;41.10;;;;;;5093339;28;20477;-72
2024/01/08 06:24:40;;;;;;;15.32;10.65;;;0.60;41.20;;;;;;5093119;28;20481;-70
2024/01/08 06:27:06;;;;;;;17.08;10.82;;;0.60;40.30;;;;;;5093065;28;20459;-70
2024/01/08 06:29:32;;;;;;;13.20;10.05;;;0.60;39.80;;;;;;5096893;28;20743;-70
2024/01/08 06:31:59;;;;;;;14.73;11.23;;;0.60;39.00;;;;;;5092876;28;20377;-70
2024/01/08 06:34:24;;;;;;;13.88;10.93;;;0.60;39.70;;;;;;5093241;28;20891;-70
2024/01/08 06:36:50;;;;;;;15.00;11.30;;;0.60;39.60;;;;;;5093013;28;20378;-70
2024/01/08 06:39:15;;;;;;;13.77;10.20;;;0.60;40.00;;;;;;5092969;28;20493;-70
2024/01/08 06:41:41;;;;;;;13.70;10.68;;;0.70;39.10;;;;;;5092769;28;20909;-70
2024/01/08 06:44:06;;;;;;;15.80;11.00;;;0.80;39.50;;;;;;5094529;28;20405;-72
2024/01/08 06:46:32;;;;;;;14.40;10.57;;;0.70;39.30;;;;;;5093662;28;20465;-71
2024/01/08 06:48:58;;;;;;;12.20;9.82;;;0.80;38.90;;;;;;5093768;28;20381;-73
2024/01/08 06:51:23;;;;;;;13.00;10.00;;;0.80;38.10;;;;;;5093022;28;20413;-70
2024/01/08 06:53:49;;;;;;;15.73;11.73;;;0.80;38.10;;;;;;5092719;28;20447;-70
2024/01/08 06:56:15;;;;;;;15.68;10.23;;;0.70;39.20;;;;;;5093121;28;20479;-71
2024/01/08 06:58:40;;;;;;;14.07;11.63;;;0.70;39.30;;;;;;5092276;28;20725;-71
2024/01/08 07:01:06;;;;;;;15.30;11.53;;;0.70;40.00;;;;;;5092496;28;20404;-72
2024/01/08 07:03:32;;;;;;;14.25;11.30;;;0.80;40.10;;;;;;5092579;28;20505;-70
2024/01/08 07:05:58;;;;;;;19.73;13.00;;;0.70;40.10;;;;;;5092795;28;20374;-70
2024/01/08 07:08:23;;;;;;;15.57;11.40;;;0.70;42.20;;;;;;5092546;28;20887;-71
2024/01/08 07:10:49;;;;;;;14.10;10.70;;;0.80;40.60;;;;;;5092692;28;20496;-70
2024/01/08 07:13:15;;;;;;;15.48;10.82;;;0.90;39.50;;;;;;5092281;28;20752;-71
2024/01/08 07:15:46;;;;;;;13.73;10.15;;;0.90;38.50;;;;;;5092636;28;20393;-73
2024/01/08 07:18:12;;;;;;;15.85;11.50;;;0.80;38.90;;;;;;5094014;28;20390;-71
2024/01/08 07:20:39;;;;;;;14.50;9.57;;;0.90;39.00;;;;;;5082438;28;20730;-73
2024/01/08 07:23:08;;;;;;;13.80;10.20;;;0.80;39.00;;;;;;5098991;28;20887;-73
2024/01/08 07:25:37;;;;;;;14.57;10.98;;;0.80;39.20;;;;;;5096063;28;20375;-73
2024/01/08 07:28:06;;;;;;;15.95;10.93;;;0.70;39.10;;;;;;5093047;28;20448;-71
2024/01/08 07:30:32;;;;;;;12.57;10.02;;;0.70;41.10;;;;;;5095782;28;20386;-71
2024/01/08 07:32:58;;;;;;;15.25;10.45;;;0.80;38.40;;;;;;5092746;28;20409;-70
2024/01/08 07:35:24;;;;;;;14.40;10.37;;;0.80;39.60;;;;;;5092269;28;20386;-70
2024/01/08 07:37:55;;;;;;;11.27;7.97;;;0.70;39.90;;;;;;5092257;28;20382;-71
2024/01/08 07:40:21;;;;;;;15.40;8.50;;;0.80;37.70;;;;;;5073928;28;20386;-72
2024/01/08 07:42:47;;;;;;;11.00;8.43;;;0.90;37.00;;;;;;5092159;28;20875;-71
2024/01/08 07:45:13;;;;;;;13.40;8.13;;;0.90;37.40;;;;;;5092076;28;20398;-72
2024/01/08 07:47:38;;;;;;;10.70;8.57;;;0.90;36.80;;;;;;5091966;28;20374;-71
2024/01/08 07:50:05;;;;;;;15.23;10.27;;;0.90;37.60;;;;;;5092257;28;20953;-72
2024/01/08 07:52:31;;;;;;;13.65;9.23;;;0.90;38.20;;;;;;5073902;28;20734;-69
2024/01/08 07:54:57;;;;;;;17.20;9.93;;;0.90;37.10;;;;;;5091863;28;20393;-70
2024/01/08 07:57:22;;;;;;;11.73;8.90;;;0.90;39.20;;;;;;5091793;28;20380;-71
2024/01/08 07:59:48;;;;;;;11.30;8.60;;;1.00;37.90;;;;;;5092292;28;20446;-71
2024/01/08 08:02:14;;;;;;;11.32;8.75;;;1.00;37.90;;;;;;5091804;28;20382;-70
2024/01/08 08:04:39;;;;;;;11.40;8.75;;;1.10;37.80;;;;;;5091436;28;20479;-72
2024/01/08 08:07:07;;;;;;;13.05;9.15;;;1.10;37.00;;;;;;5091438;28;21653;-73
2024/01/08 08:09:32;;;;;;;13.23;9.23;;;1.00;37.70;;;;;;5092360;28;20412;-71
2024/01/08 08:11:58;;;;;;;13.27;9.30;;;1.00;38.70;;;;;;5092138;28;20382;-72
2024/01/08 08:14:25;;;;;;;12.70;8.50;;;0.90;39.30;;;;;;5094362;28;20419;-72
2024/01/08 08:16:50;;;;;;;14.38;9.40;;;1.10;38.10;;;;;;5091547;28;20381;-72
2024/01/08 08:19:16;;;;;;;13.57;9.20;;;1.20;38.40;;;;;;5091517;28;20398;-72
2024/01/08 08:21:41;;;;;;;12.80;9.50;;;1.10;39.20;;;;;;5091864;28;20420;-73
2024/01/08 08:24:07;;;;;;;14.98;9.80;;;1.20;40.10;;;;;;5092956;28;20849;-72
2024/01/08 08:26:32;;;;;;;14.40;10.23;;;1.10;39.80;;;;;;5091663;28;20439;-72
2024/01/08 08:28:58;;;;;;;14.68;10.63;;;1.00;39.80;;;;;;5091128;28;20472;-72
2024/01/08 08:31:24;;;;;;;12.20;9.40;;;1.10;40.60;;;;;;5091085;28;20409;-73
2024/01/08 08:33:49;;;;;;;11.47;8.73;;;1.10;39.20;;;;;;5092597;28;20377;-73
2024/01/08 08:36:15;;;;;;;13.63;9.33;;;1.20;38.20;;;;;;5097795;28;20386;-73
2024/01/08 08:38:40;;;;;;;12.70;9.85;;;1.00;42.00;;;;;;5079348;28;20389;-73
2024/01/08 08:41:06;;;;;;;14.30;11.18;;;0.80;44.60;;;;;;5095666;28;20385;-77
2024/01/08 08:43:31;;;;;;;12.60;9.63;;;0.90;46.00;;;;;;5094006;28;20764;-73
2024/01/08 08:45:57;;;;;;;13.83;9.40;;;0.90;43.40;;;;;;5092348;28;20465;-73
2024/01/08 08:48:22;;;;;;;13.85;10.43;;;0.90;41.70;;;;;;5093037;28;20410;-73
2024/01/08 08:50:48;;;;;;;12.35;9.80;;;0.80;40.90;;;;;;5098044;28;20382;-72
2024/01/08 08:53:14;;;;;;;14.80;10.68;;;0.80;41.50;;;;;;5109882;28;20434;-72
2024/01/08 08:55:39;;;;;;;13.53;10.60;;;0.80;40.90;;;;;;5109461;28;20386;-72
2024/01/08 08:58:09;;;;;;;13.37;10.30;;;0.80;42.80;;;;;;5092409;28;20412;-72
2024/01/08 09:00:36;;;;;;;14.07;10.00;;;0.90;41.30;;;;;;5091617;28;20382;-73
2024/01/08 09:03:03;;;;;;;15.10;9.70;;;0.90;41.80;;;;;;5091435;28;20494;-72
2024/01/08 09:05:29;;;;;;;14.68;10.65;;;0.90;42.00;;;;;;5092097;28;20402;-72
2024/01/08 09:07:55;;;;;;;12.40;9.90;;;0.90;42.60;;;;;;5096397;28;20378;-73
2024/01/08 09:10:20;;;;;;;13.63;10.73;;;1.00;42.90;;;;;;5092039;28;20378;-74
2024/01/08 09:12:46;;;;;;;13.77;10.50;;;1.00;43.30;;;;;;5091121;28;20378;-72
2024/01/08 09:15:11;;;;;;;13.73;10.50;;;1.10;41.40;;;;;;5092011;28;20864;-73
2024/01/08 09:17:38;;;;;;;16.05;10.90;;;1.00;42.40;;;;;;5091560;28;20930;-73
2024/01/08 09:20:14;;;;;;;13.90;10.63;;;1.00;42.80;;;;;;5090907;28;20473;-73
2024/01/08 09:22:39;;;;;;;15.40;10.27;;;1.00;42.70;;;;;;5092187;28;20381;-73
2024/01/08 09:25:06;;;;;;;17.77;10.95;;;1.00;42.20;;;;;;5095106;28;20765;-73
2024/01/08 09:27:32;;;;;;;14.05;10.45;;;1.10;43.10;;;;;;5095410;28;20815;-74
2024/01/08 09:29:58;;;;;;;12.80;10.18;;;1.10;43.00;;;;;;5095385;28;20413;-73
2024/01/08 09:32:24;;;;;;;15.15;11.07;;;1.00;42.10;;;;;;5095514;28;20378;-72
2024/01/08 09:34:50;;;;;;;12.88;10.77;;;0.90;44.30;;;;;;5094989;28;20381;-73
2024/01/08 09:37:16;;;;;;;14.38;10.90;;;1.00;44.30;;;;;;5095220;28;20775;-72
2024/01/08 09:39:42;;;;;;;13.85;10.75;;;1.10;43.70;;;;;;5094867;28;20431;-73
2024/01/08 09:42:09;;;;;;;12.15;10.85;;;1.10;44.00;;;;;;5095057;28;20378;-73
2024/01/08 09:44:37;;;;;;;12.48;9.80;;;1.10;42.40;;;;;;5095065;28;20466;-73
2024/01/08 09:47:04;;;;;;;13.32;10.25;;;1.10;42.50;;;;;;5095125;28;20468;-74
2024/01/08 09:49:32;;;;;;;12.75;9.90;;;1.20;42.40;;;;;;5095050;28;20852;-73
2024/01/08 09:52:02;;;;;;;13.63;9.73;;;1.20;41.00;;;;;;5094860;28;20390;-73
2024/01/08 09:54:29;;;;;;;11.93;9.43;;;1.40;40.40;;;;;;5095361;28;20382;-73
2024/01/08 09:56:58;;;;;;;10.80;8.80;;;1.30;39.30;;;;;;5094625;28;20382;-73
2024/01/08 09:59:25;;;;;;;13.60;9.52;;;1.40;38.20;;;;;;5095226;28;20474;-72
2024/01/08 10:01:50;;;;;;;13.00;9.00;;;1.50;38.50;;;;;;5094525;28;20389;-73
2024/01/08 10:04:16;;;;;;;14.07;9.67;;;1.50;37.30;;;;;;5095112;28;20398;-73
2024/01/08 10:06:45;;;;;;;11.65;8.32;;;1.60;38.40;;;;;;5078406;28;20382;-72
2024/01/08 10:09:12;;;;;;;9.00;7.43;;;1.60;36.30;;;;;;5097010;28;20845;-73
2024/01/08 10:11:39;;;;;;;10.18;7.50;;;1.60;34.70;;;;;;5094237;28;20408;-73
2024/01/08 10:14:07;;;;;;;10.38;7.10;;;1.50;34.10;;;;;;5096131;28;20420;-73
2024/01/08 10:16:33;;;;;;;11.63;8.00;;;1.50;32.70;;;;;;5095580;28;20441;-73
2024/01/08 10:18:59;;;;;;;8.48;5.88;;;1.50;32.30;;;;;;5094652;28;20401;-72
2024/01/08 10:21:25;;;;;;;7.80;5.57;;;1.50;29.80;;;;;;5093766;28;20382;-72
2024/01/08 10:23:50;;;;;;;8.63;6.00;;;1.40;28.60;;;;;;5075611;28;20496;-72
2024/01/08 10:26:17;;;;;;;8.70;5.50;;;1.20;28.90;;;;;;5093382;28;20393;-72
2024/01/08 10:28:45;;;;;;;8.55;6.00;;;1.00;28.30;;;;;;5093089;28;20442;-72
2024/01/08 10:31:12;;;;;;;7.80;5.60;;;0.80;28.70;;;;;;5093578;28;20467;-71
2024/01/08 10:33:37;;;;;;;9.13;5.97;;;0.70;27.30;;;;;;5092226;28;20417;-72
2024/01/08 10:36:04;;;;;;;9.50;6.85;;;0.60;29.00;;;;;;5093436;28;20414;-71
2024/01/08 10:38:34;;;;;;;8.30;5.80;;;0.70;30.80;;;;;;5092940;28;20386;-73
2024/01/08 10:41:01;;;;;;;6.50;5.43;;;0.80;30.00;;;;;;5093084;28;20877;-73
2024/01/08 10:43:30;;;;;;;9.10;6.32;;;0.80;26.70;;;;;;5093452;28;20667;-71
2024/01/08 10:46:02;;;;;;;7.93;5.70;;;0.90;27.30;;;;;;5093303;28;21139;-72
2024/01/08 10:48:38;;;;;;;10.47;5.60;;;0.90;24.90;;;;;;5092855;28;20378;-71
2024/01/08 10:51:06;;;;;;;8.32;5.90;;;0.90;23.20;;;;;;5074823;28;20897;-72
2024/01/08 10:53:45;;;;;;;11.02;5.90;;;0.80;24.30;;;;;;5093096;28;20416;-73
2024/01/08 10:56:15;;;;;;;6.57;4.50;;;0.80;25.40;;;;;;5094912;28;20385;-72
2024/01/08 10:59:03;;;;;;;6.32;4.90;;;0.90;21.80;;;;;;5093438;28;20392;-72
2024/01/08 11:01:29;;;;;;;7.32;5.43;;;0.90;22.50;;;;;;5093991;28;20485;-71
2024/01/08 11:03:56;;;;;;;7.97;5.97;;;0.90;19.80;;;;;;5076516;28;20413;-73
2024/01/08 11:06:23;;;;;;;14.23;6.10;;;0.90;20.30;;;;;;5095123;28;20459;-72
2024/01/08 11:08:49;;;;;;;7.20;4.88;;;0.90;19.90;;;;;;5093257;28;20385;-73
2024/01/08 11:11:15;;;;;;;6.15;5.25;;;0.90;18.60;;;;;;5092350;28;20454;-73
2024/01/08 11:13:42;;;;;;;7.55;5.45;;;0.90;20.70;;;;;;5092946;28;20382;-72
2024/01/08 11:16:08;;;;;;;10.90;6.35;;;0.90;20.90;;;;;;5093166;28;20468;-74
2024/01/08 11:18:34;;;;;;;7.43;5.68;;;0.90;21.70;;;;;;5092659;28;20489;-72
2024/01/08 11:21:01;;;;;;;7.25;5.80;;;0.90;21.00;;;;;;5093796;28;20378;-72
2024/01/08 11:23:40;;;;;;;8.05;5.90;;;0.90;22.90;;;;;;5093475;28;20461;-72
2024/01/08 11:26:22;;;;;;;7.10;5.20;;;1.00;22.10;;;;;;5092849;28;20378;-73
2024/01/08 11:29:05;;;;;;;8.13;5.90;;;1.10;20.30;;;;;;5092953;28;20779;-73
2024/01/08 11:31:52;;;;;;;9.80;5.55;;;1.20;20.00;;;;;;5093507;28;20371;-73
2024/01/08 11:34:55;;;;;;;8.43;6.53;;;1.00;18.70;;;;;;5093575;28;20385;-74
2024/01/08 11:37:42;;;;;;;8.60;6.43;;;1.00;22.20;;;;;;5093162;28;20406;-73
2024/01/08 11:40:18;;;;;;;7.87;6.30;;;1.00;22.90;;;;;;5092719;28;20440;-72
2024/01/08 11:42:49;;;;;;;8.25;5.90;;;0.90;21.10;;;;;;5078136;28;20416;-72
2024/01/08 11:45:16;;;;;;;10.02;6.20;;;0.80;21.70;;;;;;5092622;28;20758;-72
2024/01/08 11:47:42;;;;;;;7.53;5.93;;;0.90;22.50;;;;;;5092762;28;20390;-72
2024/01/08 11:50:09;;;;;;;7.97;6.20;;;1.00;21.10;;;;;;5094923;28;20725;-72
2024/01/08 11:52:37;;;;;;;9.77;5.65;;;0.90;22.30;;;;;;5096338;28;20462;-72
2024/01/08 11:55:04;;;;;;;9.82;6.00;;;0.90;20.30;;;;;;5095561;28;20397;-72
2024/01/08 11:57:30;;;;;;;7.05;5.82;;;0.80;20.00;;;;;;5093127;28;20457;-72
2024/01/08 11:59:56;;;;;;;6.40;5.70;;;0.70;20.20;;;;;;5092018;28;20461;-72
2024/01/08 12:02:24;;;;;;;7.50;5.50;;;0.70;19.90;;;;;;5092165;28;20892;-74
2024/01/08 12:04:58;;;;;;;8.65;6.30;;;0.70;19.60;;;;;;5073471;28;20440;-72
2024/01/08 12:07:27;;;;;;;8.50;6.20;;;0.80;20.80;;;;;;5091491;28;20888;-72
2024/01/08 12:09:54;;;;;;;7.75;6.22;;;0.80;21.80;;;;;;5074757;28;20389;-73
2024/01/08 12:12:23;;;;;;;8.75;5.80;;;0.80;22.80;;;;;;5091885;28;20366;-72
2024/01/08 12:14:49;;;;;;;6.70;5.90;;;0.90;21.70;;;;;;5073168;28;20760;-72
2024/01/08 12:17:16;;;;;;;8.75;5.90;;;0.90;20.50;;;;;;5092332;28;20896;-72
2024/01/08 12:19:48;;;;;;;6.30;5.38;;;0.90;23.30;;;;;;5092016;28;20925;-73
2024/01/08 12:22:14;;;;;;;7.85;5.63;;;0.80;22.30;;;;;;5092483;28;20954;-73
2024/01/08 12:24:42;;;;;;;7.60;5.78;;;0.90;21.50;;;;;;5092179;28;20881;-72
2024/01/08 12:27:08;;;;;;;8.20;5.68;;;0.90;22.00;;;;;;5092434;28;20447;-73
2024/01/08 12:29:44;;;;;;;7.32;5.70;;;0.90;21.20;;;;;;5092862;28;20811;-73
2024/01/08 12:32:13;;;;;;;6.63;5.13;;;0.90;20.40;;;;;;5092207;28;20431;-72
2024/01/08 12:34:42;;;;;;;6.95;5.20;;;0.90;18.10;;;;;;5092153;28;20542;-72
2024/01/08 12:37:09;;;;;;;6.38;5.00;;;0.70;17.80;;;;;;5093925;28;20393;-72
2024/01/08 12:39:35;;;;;;;9.90;6.40;;;0.70;17.90;;;;;;5093579;28;20393;-73
2024/01/08 12:42:04;;;;;;;6.72;5.32;;;0.70;19.80;;;;;;5093454;28;20386;-73